Time;durP1;ratioP1;P1;durP2;ratioP2;P2;SDS_P1;SDS_P2;PMS_P1;PMS_P2;Temp;Humidity;BMP_temperature;BMP_pressure;BME280_temperature;BME280_humidity;BME280_pressure;Samples;Min_cycle;Max_cycle;Signal;HPM_P1;HPM_P2
2022/09/22 00:01:36;;;;;;;14.85;11.30;;;;;;;10.01;95.11;97083.75;1817908;78;21022;-85
2022/09/22 00:04:06;;;;;;;15.60;12.75;;;;;;;10.04;95.41;97081.31;1823272;78;21026;-85
2022/09/22 00:06:38;;;;;;;13.68;10.98;;;;;;;10.06;95.52;97084.06;1796056;80;21019;-86
2022/09/22 00:09:06;;;;;;;14.95;12.58;;;;;;;10.08;95.52;97087.31;1794246;80;21006;-85
2022/09/22 00:11:41;;;;;;;15.58;11.95;;;;;;;10.10;95.26;97086.69;1780930;80;20927;-85
2022/09/22 00:14:11;;;;;;;14.28;12.00;;;;;;;10.13;95.38;97085.55;1819837;78;20975;-86
2022/09/22 00:16:41;;;;;;;13.85;12.00;;;;;;;10.18;95.51;97089.77;1799141;80;21441;-85
2022/09/22 00:19:09;;;;;;;13.45;11.03;;;;;;;10.18;95.34;97085.88;1790702;80;20987;-86
2022/09/22 00:21:35;;;;;;;13.35;11.68;;;;;;;10.16;95.49;97082.14;1815072;78;20963;-85
2022/09/22 00:24:01;;;;;;;13.55;10.85;;;;;;;10.16;95.51;97083.44;1799411;79;21042;-85
2022/09/22 00:26:27;;;;;;;12.18;9.75;;;;;;;10.15;95.46;97089.61;1801733;79;20991;-85
2022/09/22 00:28:53;;;;;;;13.15;11.08;;;;;;;10.17;95.45;97081.16;1789406;79;20959;-85
2022/09/22 00:31:23;;;;;;;12.33;10.30;;;;;;;10.17;95.04;97083.77;1796336;78;20943;-85
2022/09/22 00:33:50;;;;;;;13.18;10.45;;;;;;;10.20;95.13;97078.73;1808292;79;20979;-85
2022/09/22 00:36:17;;;;;;;12.95;11.35;;;;;;;10.20;95.26;97080.02;1807628;79;20955;-85
2022/09/22 00:38:42;;;;;;;12.88;10.25;;;;;;;10.22;95.47;97084.11;1806450;79;21362;-85
2022/09/22 00:41:15;;;;;;;15.38;12.80;;;;;;;10.23;95.44;97087.52;1808368;79;21059;-85
2022/09/22 00:43:42;;;;;;;12.30;10.28;;;;;;;10.22;95.15;97084.59;1802760;79;20935;-85
2022/09/22 00:46:14;;;;;;;14.50;11.90;;;;;;;10.25;95.12;97087.35;1800641;79;21035;-84
2022/09/22 00:48:44;;;;;;;12.37;10.98;;;;;;;10.26;95.04;97083.81;1776200;80;21346;-85
2022/09/22 00:51:13;;;;;;;13.13;11.48;;;;;;;10.20;94.72;97082.13;1790976;80;21059;-86
2022/09/22 00:53:38;;;;;;;15.60;11.10;;;;;;;10.12;94.74;97084.74;1763950;81;21012;-85
2022/09/22 00:56:30;;;;;;;13.50;12.10;;;;;;;10.08;95.40;97086.50;1777489;80;21074;-86
2022/09/22 00:59:01;;;;;;;14.30;12.28;;;;;;;10.09;95.18;97084.26;1755577;80;21001;-85
2022/09/22 01:01:27;;;;;;;15.13;12.75;;;;;;;10.01;94.93;97083.75;1769660;80;21361;-86
2022/09/22 01:03:55;;;;;;;13.35;12.05;;;;;;;9.99;95.12;97079.70;1760521;81;20972;-86
2022/09/22 01:06:25;;;;;;;15.08;13.32;;;;;;;9.98;95.35;97075.48;1769943;81;20988;-85
2022/09/22 01:08:51;;;;;;;16.50;13.72;;;;;;;9.96;95.24;97079.53;1745521;81;20963;-85
2022/09/22 01:11:19;;;;;;;16.80;14.10;;;;;;;9.94;95.42;97078.89;1767881;80;20940;-85
2022/09/22 01:14:33;;;;;;;15.58;13.25;;;;;;;9.91;95.67;97079.99;1747339;81;21064;-85
2022/09/22 01:17:20;;;;;;;15.05;13.45;;;;;;;9.89;95.43;97078.05;1740925;80;21016;-86
2022/09/22 01:20:25;;;;;;;18.07;14.10;;;;;;;9.93;95.82;97077.27;1765313;81;20950;-85
2022/09/22 01:23:18;;;;;;;18.52;14.80;;;;;;;9.95;95.59;97073.20;1763794;81;20972;-85
2022/09/22 01:26:14;;;;;;;16.37;14.68;;;;;;;9.98;96.01;97074.98;1750835;80;20972;-85
2022/09/22 01:29:28;;;;;;;16.32;14.63;;;;;;;10.02;96.04;97078.07;1759221;81;21374;-85
2022/09/22 01:32:31;;;;;;;19.05;15.58;;;;;;;10.00;95.98;97073.05;1758606;80;21007;-85
2022/09/22 01:35:08;;;;;;;18.67;15.48;;;;;;;9.93;95.79;97072.08;1769344;81;20988;-85
2022/09/22 01:38:04;;;;;;;18.85;16.52;;;;;;;9.89;95.87;97072.86;1725387;81;20966;-85
2022/09/22 01:40:40;;;;;;;19.95;15.70;;;;;;;9.91;96.18;97068.31;1776923;80;20968;-85
2022/09/22 01:43:19;;;;;;;19.82;17.37;;;;;;;9.95;96.30;97066.23;1772644;80;20990;-85
2022/09/22 01:45:47;;;;;;;21.27;18.98;;;;;;;9.96;96.32;97063.95;1766964;79;20979;-86
2022/09/22 01:48:20;;;;;;;22.20;18.67;;;;;;;9.92;96.19;97067.83;1779274;79;21294;-84
2022/09/22 01:50:54;;;;;;;19.87;17.87;;;;;;;9.90;96.19;97067.17;1804073;79;21019;-85
2022/09/22 01:53:23;;;;;;;21.05;18.82;;;;;;;9.88;96.24;97067.34;1803277;79;20944;-85
2022/09/22 01:55:53;;;;;;;21.45;18.32;;;;;;;9.89;96.08;97063.77;1804706;78;20959;-85
2022/09/22 01:58:42;;;;;;;23.18;20.15;;;;;;;9.88;96.17;97065.23;1828084;78;20932;-85
2022/09/22 02:01:12;;;;;;;22.50;18.32;;;;;;;9.88;95.90;97061.34;1777159;80;21027;-85
2022/09/22 02:03:43;;;;;;;21.25;18.75;;;;;;;9.86;96.01;97064.09;1799821;80;21090;-85
2022/09/22 02:06:21;;;;;;;22.30;19.30;;;;;;;9.85;96.08;97066.86;1786835;79;20998;-85
2022/09/22 02:09:02;;;;;;;24.23;20.68;;;;;;;9.85;96.46;97067.67;1797054;78;21357;-85
2022/09/22 02:11:28;;;;;;;21.23;18.92;;;;;;;9.84;96.06;97066.05;1790670;79;20978;-85
2022/09/22 02:13:54;;;;;;;21.07;18.77;;;;;;;9.87;96.06;97066.20;1802335;79;21060;-85
2022/09/22 02:16:21;;;;;;;20.65;17.67;;;;;;;9.85;95.89;97052.58;1800194;79;21409;-85
2022/09/22 02:19:09;;;;;;;21.30;19.10;;;;;;;9.84;96.12;97051.77;1769089;81;21007;-86
2022/09/22 02:21:35;;;;;;;21.42;19.17;;;;;;;9.84;96.21;97056.96;1795631;79;21405;-84
2022/09/22 02:24:00;;;;;;;24.98;19.98;;;;;;;9.80;95.86;97049.17;1778829;79;20999;-85
2022/09/22 02:26:29;;;;;;;23.92;20.57;;;;;;;9.75;96.16;97055.31;1808045;79;20967;-85
2022/09/22 02:29:04;;;;;;;22.98;20.57;;;;;;;9.77;96.33;97052.09;1803136;79;21027;-85
2022/09/22 02:31:33;;;;;;;22.37;19.98;;;;;;;9.79;96.30;97053.23;1790489;79;20980;-85
2022/09/22 02:33:59;;;;;;;22.70;20.08;;;;;;;9.84;96.32;97056.15;1803148;79;20986;-85
2022/09/22 02:36:52;;;;;;;24.23;21.60;;;;;;;9.85;96.08;97055.17;1808303;79;20975;-86
2022/09/22 02:39:29;;;;;;;25.70;21.73;;;;;;;9.84;96.00;97052.25;1782512;79;21016;-86
2022/09/22 02:42:29;;;;;;;24.45;20.90;;;;;;;9.81;96.02;97053.39;1807618;79;21082;-86
2022/09/22 02:45:09;;;;;;;22.65;19.87;;;;;;;9.81;96.36;97056.48;1789916;79;20954;-86
2022/09/22 02:47:51;;;;;;;25.62;19.95;;;;;;;9.78;96.01;97049.83;1802078;79;21015;-85
2022/09/22 02:50:19;;;;;;;21.00;18.70;;;;;;;9.73;95.94;97057.26;1807447;79;21022;-85
2022/09/22 02:52:44;;;;;;;25.52;20.88;;;;;;;9.75;96.24;97049.31;1805563;79;21246;-85
2022/09/22 02:55:12;;;;;;;25.10;21.57;;;;;;;9.75;96.20;97048.02;1808597;79;21357;-85
2022/09/22 02:57:38;;;;;;;25.92;23.10;;;;;;;9.74;96.34;97048.98;1808201;79;20962;-85
2022/09/22 03:00:05;;;;;;;24.80;20.15;;;;;;;9.74;96.45;97048.98;1804714;79;21050;-85
2022/09/22 03:02:31;;;;;;;21.00;18.23;;;;;;;9.73;96.20;97046.88;1796491;79;20951;-85
2022/09/22 03:04:56;;;;;;;26.27;20.62;;;;;;;9.72;96.23;97049.63;1779339;79;21031;-85
2022/09/22 03:07:22;;;;;;;22.07;19.62;;;;;;;9.71;96.26;97046.23;1785863;79;20980;-85
2022/09/22 03:09:48;;;;;;;22.48;20.08;;;;;;;9.75;96.41;97050.13;1799345;78;21021;-85
2022/09/22 03:12:15;;;;;;;26.02;19.82;;;;;;;9.72;96.23;97053.53;1775694;79;21385;-85
2022/09/22 03:14:40;;;;;;;26.70;20.90;;;;;;;9.69;96.18;97044.77;1804860;79;20975;-85
2022/09/22 03:17:06;;;;;;;26.48;20.88;;;;;;;9.65;96.46;97036.50;1808203;79;20944;-85
2022/09/22 03:19:32;;;;;;;24.75;20.75;;;;;;;9.66;96.53;97042.50;1807935;79;21015;-85
2022/09/22 03:21:58;;;;;;;26.17;20.27;;;;;;;9.68;96.68;97048.34;1807963;79;21286;-85
2022/09/22 03:24:23;;;;;;;26.02;21.37;;;;;;;9.71;96.46;97045.42;1795929;79;20944;-85
2022/09/22 03:26:49;;;;;;;27.37;20.05;;;;;;;9.67;96.48;97031.15;1807356;79;20892;-85
2022/09/22 03:29:15;;;;;;;27.52;21.50;;;;;;;9.77;96.35;97039.61;1808095;79;21035;-85
2022/09/22 03:31:40;;;;;;;29.10;22.37;;;;;;;9.73;96.10;97035.20;1786282;79;21030;-85
2022/09/22 03:34:06;;;;;;;28.23;22.95;;;;;;;9.68;96.08;97042.66;1789010;79;20947;-85
2022/09/22 03:36:32;;;;;;;24.32;20.00;;;;;;;9.70;96.39;97042.02;1802455;79;20986;-85
2022/09/22 03:38:58;;;;;;;26.48;21.02;;;;;;;9.77;96.57;97046.09;1807793;79;21361;-85
2022/09/22 03:41:25;;;;;;;25.40;20.15;;;;;;;9.80;96.44;97044.47;1808021;79;21221;-85
2022/09/22 03:43:51;;;;;;;26.42;19.87;;;;;;;9.80;96.22;97043.17;1786907;79;20935;-85
2022/09/22 03:46:16;;;;;;;25.85;21.35;;;;;;;9.82;96.18;97043.82;1807234;79;20930;-85
2022/09/22 03:48:42;;;;;;;25.45;21.27;;;;;;;9.86;96.64;97043.82;1794890;79;20939;-85
2022/09/22 03:51:08;;;;;;;26.35;20.65;;;;;;;9.90;96.43;97047.70;1795781;79;20984;-85
2022/09/22 03:53:35;;;;;;;25.27;19.52;;;;;;;9.92;96.41;97045.76;1783713;80;20992;-84
2022/09/22 03:56:12;;;;;;;28.83;22.30;;;;;;;9.90;96.15;97043.81;1781861;80;20995;-85
2022/09/22 03:58:38;;;;;;;26.27;20.15;;;;;;;9.91;96.17;97044.14;1792320;79;21294;-85
2022/09/22 04:01:04;;;;;;;26.20;20.72;;;;;;;9.93;96.18;97043.52;1786654;80;20964;-84
2022/09/22 04:03:30;;;;;;;25.77;18.25;;;;;;;9.94;96.11;97049.03;1786013;80;20971;-85
2022/09/22 04:05:56;;;;;;;28.45;20.15;;;;;;;9.96;96.22;97047.57;1786143;80;20944;-86
2022/09/22 04:08:22;;;;;;;28.23;19.90;;;;;;;9.93;95.94;97042.22;1773208;80;21298;-85
2022/09/22 04:10:48;;;;;;;26.73;20.10;;;;;;;9.89;95.91;97038.30;1786562;80;20971;-84
2022/09/22 04:13:14;;;;;;;24.87;19.02;;;;;;;9.89;95.98;97038.30;1781790;80;20999;-85
2022/09/22 04:15:40;;;;;;;26.33;20.43;;;;;;;9.87;95.99;97034.57;1780070;80;21379;-85
2022/09/22 04:18:06;;;;;;;25.80;21.42;;;;;;;9.86;95.89;97042.52;1782517;80;20991;-85
2022/09/22 04:20:31;;;;;;;25.72;19.82;;;;;;;9.83;95.60;97041.55;1783313;80;20995;-84
2022/09/22 04:22:57;;;;;;;27.02;19.65;;;;;;;9.79;95.82;97044.15;1786955;80;20897;-85
2022/09/22 04:25:23;;;;;;;26.87;19.70;;;;;;;9.79;95.90;97038.95;1769004;80;20974;-85
2022/09/22 04:27:49;;;;;;;26.90;20.15;;;;;;;9.77;96.05;97035.72;1769042;80;21322;-85
2022/09/22 04:30:15;;;;;;;24.90;18.80;;;;;;;9.78;96.15;97038.15;1786712;80;20947;-85
2022/09/22 04:32:40;;;;;;;25.70;19.57;;;;;;;9.79;96.10;97037.17;1764141;80;21035;-85
2022/09/22 04:35:07;;;;;;;26.05;18.98;;;;;;;9.80;95.89;97042.69;1763398;81;21324;-85
2022/09/22 04:37:32;;;;;;;24.12;18.90;;;;;;;9.78;95.81;97043.83;1763376;81;21269;-85
2022/09/22 04:39:58;;;;;;;24.67;19.20;;;;;;;9.81;96.22;97052.09;1746284;81;20942;-85
2022/09/22 04:42:25;;;;;;;22.73;18.23;;;;;;;9.84;96.34;97051.77;1744781;81;21020;-85
2022/09/22 04:44:54;;;;;;;25.37;18.35;;;;;;;9.85;96.11;97051.28;1721273;81;21947;-86
2022/09/22 04:47:19;;;;;;;24.70;18.37;;;;;;;9.85;96.18;97052.58;1771210;79;21085;-85
2022/09/22 04:49:45;;;;;;;26.05;19.27;;;;;;;9.80;95.75;97049.17;1797457;79;20986;-84
2022/09/22 04:52:11;;;;;;;23.30;18.73;;;;;;;9.79;95.58;97046.74;1811406;79;20936;-85
2022/09/22 04:54:37;;;;;;;25.02;20.27;;;;;;;9.80;95.67;97048.36;1785044;79;21023;-85
2022/09/22 04:57:03;;;;;;;23.57;19.37;;;;;;;9.76;95.60;97051.77;1808788;79;21016;-85
2022/09/22 04:59:28;;;;;;;27.52;20.08;;;;;;;9.76;95.88;97055.66;1817708;79;20960;-85
2022/09/22 05:01:54;;;;;;;29.95;20.00;;;;;;;9.74;95.64;97055.47;1758897;80;21022;-85
2022/09/22 05:04:20;;;;;;;22.85;18.70;;;;;;;9.65;95.50;97059.86;1772856;80;20980;-85
2022/09/22 05:06:46;;;;;;;23.52;18.17;;;;;;;9.62;95.67;97059.69;1785872;80;21308;-84
2022/09/22 05:09:13;;;;;;;23.42;18.23;;;;;;;9.57;95.64;97064.52;1778008;80;20987;-85
2022/09/22 05:11:40;;;;;;;29.25;19.10;;;;;;;9.52;95.73;97065.98;1794771;79;20964;-85
2022/09/22 05:14:06;;;;;;;25.00;17.82;;;;;;;9.51;95.89;97070.36;1771625;80;20982;-85
2022/09/22 05:16:32;;;;;;;22.65;16.73;;;;;;;9.50;96.14;97066.63;1793518;79;20921;-85
2022/09/22 05:18:58;;;;;;;21.60;16.05;;;;;;;9.45;96.38;97068.41;1783899;79;20928;-85
2022/09/22 05:21:24;;;;;;;24.35;17.00;;;;;;;9.44;95.92;97071.16;1778578;80;21348;-85
2022/09/22 05:23:49;;;;;;;24.25;17.48;;;;;;;9.43;95.97;97065.13;1775150;80;20990;-85
2022/09/22 05:26:15;;;;;;;20.27;16.02;;;;;;;9.43;96.14;97066.42;1811541;79;21331;-84
2022/09/22 05:28:41;;;;;;;21.87;16.62;;;;;;;9.46;96.13;97070.03;1808574;79;21023;-85
2022/09/22 05:31:07;;;;;;;21.37;17.00;;;;;;;9.38;95.65;97071.28;1787366;80;21394;-85
2022/09/22 05:33:33;;;;;;;22.07;17.32;;;;;;;9.36;96.06;97066.73;1785665;80;21023;-85
2022/09/22 05:35:59;;;;;;;22.10;17.90;;;;;;;9.36;96.41;97066.73;1789045;80;20992;-85
2022/09/22 05:38:24;;;;;;;20.12;14.90;;;;;;;9.39;96.46;97061.72;1799105;80;21033;-85
2022/09/22 05:40:50;;;;;;;23.42;18.15;;;;;;;9.43;96.81;97057.34;1773910;80;21079;-85
2022/09/22 05:43:16;;;;;;;24.02;17.92;;;;;;;9.51;96.84;97064.35;1792240;80;20973;-85
2022/09/22 05:45:43;;;;;;;21.68;17.02;;;;;;;9.55;96.64;97062.58;1781755;80;21297;-85
2022/09/22 05:48:09;;;;;;;23.52;17.62;;;;;;;9.55;96.64;97059.98;1775771;79;21105;-85
2022/09/22 05:50:35;;;;;;;24.35;18.05;;;;;;;9.56;96.62;97057.71;1766842;81;20987;-85
2022/09/22 05:53:04;;;;;;;23.42;17.27;;;;;;;9.57;96.83;97059.33;1768758;81;20957;-85
2022/09/22 05:55:30;;;;;;;25.23;17.40;;;;;;;9.59;96.47;97064.36;1761409;80;20943;-84
2022/09/22 05:57:56;;;;;;;24.52;17.27;;;;;;;9.59;96.74;97062.58;1767623;80;21447;-84
2022/09/22 06:00:22;;;;;;;22.85;16.75;;;;;;;9.63;96.57;97067.80;1786418;80;21006;-85
2022/09/22 06:02:48;;;;;;;25.62;17.80;;;;;;;9.63;96.17;97072.98;1784637;80;20985;-85
2022/09/22 06:05:14;;;;;;;25.48;16.85;;;;;;;9.65;96.31;97077.20;1782987;80;21021;-85
2022/09/22 06:07:40;;;;;;;23.80;16.75;;;;;;;9.65;96.10;97075.91;1763953;80;20940;-85
2022/09/22 06:10:06;;;;;;;23.22;16.07;;;;;;;9.63;96.23;97078.18;1765365;80;20942;-85
2022/09/22 06:12:33;;;;;;;23.15;16.17;;;;;;;9.63;96.06;97078.18;1785943;80;21030;-85
2022/09/22 06:14:59;;;;;;;22.07;15.23;;;;;;;9.64;96.28;97077.69;1781333;80;20946;-85
2022/09/22 06:17:25;;;;;;;22.45;15.83;;;;;;;9.66;95.97;97075.75;1781627;80;21011;-84
2022/09/22 06:19:50;;;;;;;25.35;17.98;;;;;;;9.65;95.77;97079.80;1755586;80;20933;-85
2022/09/22 06:22:16;;;;;;;22.65;16.80;;;;;;;9.66;95.95;97082.72;1771605;81;21358;-85
2022/09/22 06:24:43;;;;;;;26.35;15.95;;;;;;;9.68;96.12;97080.77;1781350;80;20948;-85
2022/09/22 06:27:08;;;;;;;22.25;14.85;;;;;;;9.67;95.83;97085.64;1766401;80;21302;-85
2022/09/22 06:29:35;;;;;;;25.32;16.48;;;;;;;9.67;95.92;97086.94;1785113;80;20939;-85
2022/09/22 06:32:01;;;;;;;23.55;17.60;;;;;;;9.68;95.39;97088.56;1786128;80;20962;-85
2022/09/22 06:34:27;;;;;;;23.92;16.27;;;;;;;9.67;94.95;97092.13;1785830;80;20977;-85
2022/09/22 06:36:56;;;;;;;25.62;18.00;;;;;;;9.67;95.14;97092.94;1779290;80;20915;-85
2022/09/22 06:39:22;;;;;;;22.75;15.98;;;;;;;9.68;95.40;97092.45;1765198;80;20963;-85
2022/09/22 06:41:48;;;;;;;28.27;17.37;;;;;;;9.70;95.65;97094.40;1759686;80;21056;-85
2022/09/22 06:44:14;;;;;;;26.33;17.57;;;;;;;9.69;95.28;97103.16;1784759;80;21331;-85
2022/09/22 06:46:40;;;;;;;27.10;18.62;;;;;;;9.68;95.62;97107.53;1762864;79;20972;-85
2022/09/22 06:49:06;;;;;;;27.95;18.95;;;;;;;9.65;95.09;97101.86;1761700;80;21031;-85
2022/09/22 06:51:34;;;;;;;26.37;19.10;;;;;;;9.66;95.26;97104.77;1743429;80;20966;-85
2022/09/22 06:54:03;;;;;;;29.32;18.82;;;;;;;9.62;95.15;97107.69;1806302;79;20970;-85
2022/09/22 06:56:33;;;;;;;25.43;17.67;;;;;;;9.60;95.20;97101.85;1779803;80;20933;-85
2022/09/22 06:58:58;;;;;;;29.02;18.37;;;;;;;9.55;94.95;97109.27;1755451;81;21043;-85
2022/09/22 07:01:23;;;;;;;26.05;16.95;;;;;;;9.54;95.15;97109.44;1764851;80;21404;-84
2022/09/22 07:03:50;;;;;;;24.23;16.62;;;;;;;9.52;95.28;97104.41;1785427;79;20936;-84
2022/09/22 07:06:18;;;;;;;23.00;15.68;;;;;;;9.57;94.65;97111.71;1773884;80;20965;-85
2022/09/22 07:08:47;;;;;;;21.33;15.53;;;;;;;9.59;94.98;97110.58;1786192;80;21047;-85
2022/09/22 07:11:22;;;;;;;24.05;16.48;;;;;;;9.71;95.87;97105.91;1764417;79;20990;-85
2022/09/22 07:13:46;;;;;;;24.07;16.65;;;;;;;9.78;96.11;97108.70;1757492;80;21059;-85
2022/09/22 07:16:15;;;;;;;29.42;18.95;;;;;;;9.82;95.84;97104.81;1805004;79;21000;-85
2022/09/22 07:18:43;;;;;;;27.02;19.57;;;;;;;9.79;95.16;97105.95;1773944;80;21393;-85
2022/09/22 07:21:19;;;;;;;27.37;18.67;;;;;;;9.79;94.87;97107.73;1761788;80;21336;-85
2022/09/22 07:23:48;;;;;;;25.82;17.52;;;;;;;9.78;94.14;97110.00;1785216;79;20955;-85
2022/09/22 07:26:18;;;;;;;23.98;17.10;;;;;;;9.77;94.10;97113.09;1789986;80;21310;-85
2022/09/22 07:28:45;;;;;;;25.08;16.93;;;;;;;9.68;93.97;97113.21;1783863;79;21384;-85
2022/09/22 07:31:12;;;;;;;26.27;18.17;;;;;;;9.61;94.43;97113.86;1787930;79;21466;-84
2022/09/22 07:33:41;;;;;;;23.47;17.48;;;;;;;9.65;95.22;97117.42;1772574;80;20962;-85
2022/09/22 07:36:18;;;;;;;24.70;17.82;;;;;;;9.70;95.59;97118.56;1815586;79;21000;-85
2022/09/22 07:38:48;;;;;;;19.55;14.55;;;;;;;9.77;95.20;97114.88;1800706;80;20990;-84
2022/09/22 07:41:19;;;;;;;18.20;13.90;;;;;;;9.84;95.16;97117.14;1783620;80;20937;-85
2022/09/22 07:43:52;;;;;;;18.00;13.62;;;;;;;9.86;95.19;97121.20;1778562;80;20966;-85
2022/09/22 07:46:18;;;;;;;20.30;14.45;;;;;;;9.92;95.02;97124.48;1764760;80;20932;-85
2022/09/22 07:48:45;;;;;;;20.35;13.88;;;;;;;9.89;94.99;97123.47;1769098;80;21468;-84
2022/09/22 07:51:20;;;;;;;20.88;14.80;;;;;;;9.87;94.19;97125.91;1771362;79;21006;-85
2022/09/22 07:53:57;;;;;;;19.42;14.13;;;;;;;9.75;93.51;97127.98;1781621;79;21286;-85
2022/09/22 07:56:23;;;;;;;19.48;13.10;;;;;;;9.67;93.34;97124.08;1772066;79;20987;-85
2022/09/22 07:58:52;;;;;;;19.45;14.60;;;;;;;9.72;92.98;97123.59;1789467;79;21362;-85
2022/09/22 08:01:22;;;;;;;19.60;14.18;;;;;;;9.76;94.43;97128.79;1778440;79;20945;-84
2022/09/22 08:03:49;;;;;;;15.60;12.15;;;;;;;9.84;93.93;97125.74;1786634;79;21063;-85
2022/09/22 08:06:17;;;;;;;16.00;11.33;;;;;;;9.95;93.87;97129.84;1797390;79;20976;-85
2022/09/22 08:08:46;;;;;;;15.50;10.58;;;;;;;10.04;93.01;97130.64;1809353;79;20932;-85
2022/09/22 08:11:16;;;;;;;19.92;13.25;;;;;;;10.17;93.29;97134.41;1806459;79;21124;-85
2022/09/22 08:13:49;;;;;;;16.12;11.43;;;;;;;10.26;93.98;97138.36;1772363;79;21377;-84
2022/09/22 08:16:17;;;;;;;19.15;13.10;;;;;;;10.18;91.24;97141.22;1771603;80;20975;-84
2022/09/22 08:18:43;;;;;;;20.57;14.55;;;;;;;10.22;92.05;97143.03;1774414;79;21424;-86
2022/09/22 08:21:09;;;;;;;17.70;12.78;;;;;;;10.32;92.64;97142.41;1771431;80;20939;-84
2022/09/22 08:23:34;;;;;;;20.35;14.13;;;;;;;10.32;91.11;97141.59;1800753;79;20921;-85
2022/09/22 08:26:07;;;;;;;19.07;12.80;;;;;;;10.26;91.22;97140.95;1786374;79;20982;-85
2022/09/22 08:28:33;;;;;;;19.25;13.68;;;;;;;10.27;90.53;97143.87;1793568;79;21009;-85
2022/09/22 08:30:59;;;;;;;17.98;12.98;;;;;;;10.31;90.85;97143.38;1777135;79;21057;-85
2022/09/22 08:33:25;;;;;;;16.80;12.10;;;;;;;10.35;90.85;97142.08;1806707;79;21336;-85
2022/09/22 08:35:57;;;;;;;16.48;12.35;;;;;;;10.42;90.42;97146.16;1774602;79;20972;-85
2022/09/22 08:38:23;;;;;;;;;;;;;;;10.36;90.43;97141.10;1791830;79;20966;-85
2022/09/22 08:41:16;;;;;;;17.48;12.28;;;;;;;10.28;88.63;97139.00;1803023;79;20084;-85
2022/09/22 08:43:54;;;;;;;17.55;12.50;;;;;;;10.17;89.51;97140.89;1800928;79;21008;-85
2022/09/22 08:46:37;;;;;;;21.80;15.83;;;;;;;10.23;90.58;97138.16;1785390;78;20991;-85
2022/09/22 08:52:25;;;;;;;;;;;;;;;10.49;90.62;97129.74;1769271;80;20116;-85
2022/09/22 08:54:51;;;;;;;18.32;12.80;;;;;;;10.59;90.32;97132.19;1773654;80;20383;-85
2022/09/22 08:57:58;;;;;;;21.65;14.30;;;;;;;10.71;91.42;97133.95;1755445;80;20992;-85
2022/09/22 09:00:24;;;;;;;23.95;15.00;;;;;;;10.74;91.43;97137.05;1773097;80;21328;-85
2022/09/22 09:03:22;;;;;;;27.90;17.37;;;;;;;10.66;90.23;97129.25;1781020;80;20948;-85
2022/09/22 09:06:12;;;;;;;35.43;19.32;;;;;;;10.63;90.34;97128.28;1776792;80;20905;-85
2022/09/22 09:09:08;;;;;;;38.67;21.17;;;;;;;10.57;90.06;97132.81;1766284;80;20940;-85
2022/09/22 09:12:04;;;;;;;35.58;20.95;;;;;;;10.64;90.28;97130.39;1785904;80;20918;-85
2022/09/22 09:15:09;;;;;;;27.65;16.62;;;;;;;10.77;89.67;97126.81;1785734;80;20984;-85
2022/09/22 09:17:36;;;;;;;18.80;12.78;;;;;;;10.85;88.84;97127.27;1783691;80;21047;-85
2022/09/22 09:20:10;;;;;;;14.40;10.72;;;;;;;10.90;88.40;97119.78;1756326;81;20971;-85
2022/09/22 09:22:41;;;;;;;15.03;10.78;;;;;;;11.00;87.51;97119.94;1755290;80;21033;-85
2022/09/22 09:25:10;;;;;;;13.10;9.75;;;;;;;11.07;88.41;97120.09;1783858;80;20940;-85
2022/09/22 09:27:39;;;;;;;14.65;10.20;;;;;;;11.13;87.10;97115.03;1782088;80;21388;-85
2022/09/22 09:30:18;;;;;;;16.12;10.43;;;;;;;11.09;85.74;97120.73;1731825;82;20996;-85
2022/09/22 09:32:59;;;;;;;12.33;8.85;;;;;;;11.04;86.88;97121.22;1769792;80;20974;-85
2022/09/22 09:35:48;;;;;;;11.40;8.43;;;;;;;11.02;86.14;97121.88;1734640;82;20983;-84
2022/09/22 09:38:16;;;;;;;12.50;8.95;;;;;;;10.94;85.70;97117.20;1767803;81;21449;-85
2022/09/22 09:40:51;;;;;;;11.73;8.40;;;;;;;10.97;86.96;97113.77;1767514;81;20979;-85
2022/09/22 09:43:12;;;;;;;12.05;8.98;;;;;;;11.15;87.80;97107.05;1766589;81;20949;-85
2022/09/22 09:46:05;;;;;;;12.43;9.33;;;;;;;11.38;87.21;97103.22;1767515;81;21040;-85
2022/09/22 09:49:01;;;;;;;12.00;8.23;;;;;;;11.46;86.31;97103.70;1787927;80;21016;-85
2022/09/22 09:51:27;;;;;;;9.15;7.17;;;;;;;11.55;87.57;97107.87;1754050;81;20991;-85
2022/09/22 09:53:53;;;;;;;9.03;6.40;;;;;;;11.54;83.48;97108.36;1794386;79;20947;-85
2022/09/22 09:56:27;;;;;;;7.37;6.30;;;;;;;11.50;83.97;97106.27;1780415;79;21410;-85
2022/09/22 10:01:42;;;;;;;10.78;7.37;;;;;;;11.43;83.56;97117.86;1785503;79;21351;-85
2022/09/22 10:04:31;;;;;;;11.05;7.83;;;;;;;11.40;84.71;97118.20;1780781;79;20956;-85
2022/09/22 10:07:20;;;;;;;9.38;6.75;;;;;;;11.40;85.32;97124.70;1787157;79;20979;-85
2022/09/22 10:09:47;;;;;;;10.93;7.62;;;;;;;11.34;84.69;97127.97;1773889;79;21364;-85
2022/09/22 10:12:28;;;;;;;9.18;7.22;;;;;;;11.24;84.80;97126.06;1771640;80;20931;-85
2022/09/22 10:14:56;;;;;;;11.00;7.83;;;;;;;11.17;85.06;97131.11;1799467;79;21267;-85
2022/09/22 10:17:40;;;;;;;10.75;8.55;;;;;;;11.12;86.04;97139.42;1782946;78;21393;-86
2022/09/22 10:20:21;;;;;;;12.20;8.88;;;;;;;11.11;86.78;97138.28;1741538;81;21488;-85
2022/09/22 10:22:48;;;;;;;14.00;8.90;;;;;;;11.07;87.33;97137.00;1777083;80;21059;-85
2022/09/22 10:25:26;;;;;;;11.20;8.45;;;;;;;11.07;86.89;97133.91;1803072;79;21050;-86
2022/09/22 10:28:05;;;;;;;11.03;6.42;;;;;;;11.12;87.93;97139.42;1803205;79;21319;-85
2022/09/22 10:30:35;;;;;;;10.53;6.87;;;;;;;11.19;88.42;97138.74;1776930;79;20936;-84
2022/09/22 10:33:19;;;;;;;8.28;6.50;;;;;;;11.17;87.27;97142.81;1789104;79;20993;-85
2022/09/22 10:36:05;;;;;;;9.33;6.35;;;;;;;11.21;87.81;97138.89;1776925;79;20996;-85
2022/09/22 10:38:35;;;;;;;9.13;6.33;;;;;;;11.25;89.11;97132.40;1803369;79;20920;-85
2022/09/22 10:41:25;;;;;;;8.80;6.00;;;;;;;11.33;88.33;97132.84;1785392;79;21050;-85
2022/09/22 10:44:15;;;;;;;7.53;6.15;;;;;;;11.38;88.38;97127.94;1800545;79;20992;-85
2022/09/22 10:47:15;;;;;;;8.30;5.62;;;;;;;11.50;89.41;97127.09;1803642;79;20937;-85
2022/09/22 10:50:04;;;;;;;8.30;5.95;;;;;;;11.73;89.34;97120.98;1816870;79;20990;-85
2022/09/22 10:52:44;;;;;;;7.95;5.70;;;;;;;11.83;87.33;97118.17;1770521;80;21169;-85
2022/09/22 10:55:27;;;;;;;6.85;5.83;;;;;;;11.84;85.90;97106.77;1741978;79;20943;-85
2022/09/22 10:58:29;;;;;;;7.55;6.20;;;;;;;11.88;88.06;97109.38;1787439;79;21025;-85
2022/09/22 11:01:08;;;;;;;;;;;;;;;11.97;87.27;97114.84;1782120;80;20973;-85
2022/09/22 11:03:57;;;;;;;4.65;4.03;;;;;;;12.01;86.79;97112.20;1777537;80;20116;-85
2022/09/22 11:12:39;;;;;;;5.30;4.42;;;;;;;11.93;84.15;97110.97;1783451;80;21031;-86
2022/09/22 11:15:34;;;;;;;5.30;4.15;;;;;;;11.93;84.04;97110.16;1783815;80;21047;-86
2022/09/22 11:18:21;;;;;;;4.80;3.95;;;;;;;11.92;84.66;97105.44;1799483;79;20975;-86
2022/09/22 11:20:51;;;;;;;5.53;3.80;;;;;;;11.88;86.17;97104.17;1771150;80;20983;-86
2022/09/22 11:23:56;;;;;;;5.28;4.45;;;;;;;11.88;87.12;97104.66;1776389;79;20939;-86
2022/09/22 11:26:48;;;;;;;4.10;3.67;;;;;;;11.88;88.29;97103.36;1757736;80;21118;-86
2022/09/22 11:29:44;;;;;;;5.03;4.20;;;;;;;11.87;87.96;97094.70;1773563;80;20997;-86
2022/09/22 11:32:26;;;;;;;4.85;3.67;;;;;;;11.82;87.49;97093.61;1746229;80;20955;-85
2022/09/22 11:35:13;;;;;;;5.28;3.50;;;;;;;11.76;86.70;97087.77;1791888;79;20995;-86
2022/09/22 11:38:19;;;;;;;3.77;3.27;;;;;;;11.71;86.52;97089.56;1751133;80;20956;-86
2022/09/22 11:41:36;;;;;;;3.85;3.17;;;;;;;11.69;87.21;97085.02;1806064;79;21414;-85
2022/09/22 11:44:19;;;;;;;4.33;3.83;;;;;;;11.73;87.99;97085.02;1756892;80;21421;-86
2022/09/22 11:46:57;;;;;;;4.45;3.20;;;;;;;11.83;86.97;97083.52;1765607;79;21356;-84
2022/09/22 11:50:08;;;;;;;5.83;4.17;;;;;;;12.04;85.81;97086.33;1799536;79;21029;-85
2022/09/22 11:52:51;;;;;;;4.78;3.92;;;;;;;12.20;84.16;97087.52;1761912;79;21032;-85
2022/09/22 11:55:38;;;;;;;4.53;3.58;;;;;;;12.21;85.10;97080.51;1793330;79;20920;-85
2022/09/22 11:58:11;;;;;;;4.15;3.22;;;;;;;12.06;82.15;97080.94;1810248;79;21329;-84
2022/09/22 12:00:44;;;;;;;4.28;3.20;;;;;;;11.94;82.84;97082.64;1774290;80;20947;-86
2022/09/22 12:03:15;;;;;;;3.90;3.50;;;;;;;11.94;82.48;97074.83;1767088;80;21234;-85